createdAt,value
2019-06-01T00:02:31.099Z,99.90
2019-06-01T00:05:11.786Z,99.90
2019-06-01T00:07:52.660Z,99.90
2019-06-01T00:10:33.331Z,99.90
2019-06-01T00:13:14.494Z,99.90
2019-06-01T00:15:55.929Z,99.90
2019-06-01T00:18:37.396Z,99.90
2019-06-01T00:21:18.982Z,99.90
2019-06-01T00:23:59.491Z,99.90
2019-06-01T00:26:41.678Z,99.90
2019-06-01T00:29:23.285Z,99.90
2019-06-01T00:32:04.049Z,99.90
2019-06-01T00:34:45.772Z,99.90
2019-06-01T00:37:27.289Z,99.90
2019-06-01T00:40:08.001Z,99.90
2019-06-01T00:42:48.508Z,99.90
2019-06-01T00:45:30.054Z,99.90
2019-06-01T00:48:11.502Z,99.90
2019-06-01T00:50:53.258Z,99.90
2019-06-01T00:53:34.497Z,99.90
2019-06-01T00:56:15.192Z,99.90
2019-06-01T00:58:55.748Z,99.90
2019-06-01T01:01:37.263Z,99.90
2019-06-01T01:04:18.907Z,99.90
2019-06-01T01:07:00.247Z,99.90
2019-06-01T01:09:41.821Z,99.90
2019-06-01T01:12:22.819Z,99.90
2019-06-01T01:15:04.506Z,99.90
2019-06-01T01:17:45.746Z,99.90
2019-06-01T01:20:27.033Z,99.90
2019-06-01T01:23:08.526Z,99.90
2019-06-01T01:25:50.489Z,99.90
2019-06-01T01:28:31.530Z,99.90
2019-06-01T01:31:14.357Z,99.90
2019-06-01T01:33:55.719Z,99.90
2019-06-01T01:36:37.068Z,99.90
2019-06-01T01:39:18.463Z,99.90
2019-06-01T01:41:59.795Z,99.90
2019-06-01T01:44:41.324Z,99.90
2019-06-01T01:47:21.906Z,99.90
2019-06-01T01:50:03.047Z,99.90
2019-06-01T01:52:44.348Z,99.90
2019-06-01T01:55:25.276Z,99.90
2019-06-01T01:58:06.646Z,99.90
2019-06-01T02:00:47.730Z,99.90
2019-06-01T02:03:28.979Z,99.90
2019-06-01T02:06:09.776Z,99.90
2019-06-01T02:08:51.071Z,99.90
2019-06-01T02:11:32.275Z,99.90
2019-06-01T02:14:13.073Z,99.90
2019-06-01T02:16:56.125Z,99.90
2019-06-01T02:19:37.341Z,99.90
2019-06-01T02:22:18.950Z,99.90
2019-06-01T02:25:00.207Z,99.90
2019-06-01T02:27:41.717Z,99.90
2019-06-01T02:30:23.189Z,99.90
2019-06-01T02:33:04.859Z,99.90
2019-06-01T02:35:46.202Z,99.90
2019-06-01T02:38:27.759Z,99.90
2019-06-01T02:41:08.623Z,99.90
2019-06-01T02:43:50.004Z,99.90
2019-06-01T02:46:30.685Z,99.90
2019-06-01T02:49:11.801Z,99.90
2019-06-01T02:51:53.309Z,99.90
2019-06-01T02:54:34.271Z,99.90
2019-06-01T03:00:00.333Z,99.90
2019-06-01T03:02:49.438Z,99.90
2019-06-01T03:05:31.295Z,99.90
2019-06-01T03:08:12.754Z,99.90
2019-06-01T03:10:53.632Z,99.90
2019-06-01T03:13:34.985Z,99.90
2019-06-01T03:16:16.519Z,99.90
2019-06-01T03:18:57.173Z,99.90
2019-06-01T03:21:38.736Z,99.90
2019-06-01T03:24:20.154Z,99.90
2019-06-01T03:27:02.932Z,99.90
2019-06-01T03:29:44.801Z,99.90
2019-06-01T03:32:35.915Z,99.90
2019-06-01T03:35:08.915Z,99.90
2019-06-01T03:37:49.647Z,99.90
2019-06-01T03:40:31.105Z,99.90
2019-06-01T03:43:11.961Z,99.90
2019-06-01T03:45:53.385Z,99.90
2019-06-01T03:48:34.150Z,99.90
2019-06-01T03:51:14.974Z,99.90
2019-06-01T03:53:56.859Z,99.90
2019-06-01T03:56:37.819Z,99.90
2019-06-01T03:59:18.563Z,99.90
2019-06-01T04:02:00.873Z,99.90
2019-06-01T04:04:42.211Z,99.90
2019-06-01T04:07:23.440Z,99.90
2019-06-01T04:10:05.668Z,99.90
2019-06-01T04:12:46.824Z,99.90
2019-06-01T04:15:27.781Z,99.90
2019-06-01T04:18:09.901Z,99.90
2019-06-01T04:20:51.324Z,99.90
2019-06-01T04:23:32.851Z,99.90
2019-06-01T04:26:13.776Z,99.90
2019-06-01T04:28:55.175Z,99.90
2019-06-01T04:31:35.951Z,99.90
2019-06-01T04:34:16.645Z,99.90
2019-06-01T04:36:58.199Z,99.90
2019-06-01T04:39:38.989Z,99.90
2019-06-01T04:42:20.357Z,99.90
2019-06-01T04:45:02.144Z,99.90
2019-06-01T04:47:42.990Z,99.90
2019-06-01T04:50:24.421Z,99.90
2019-06-01T04:53:06.815Z,99.90
2019-06-01T04:55:47.654Z,99.90
2019-06-01T04:58:28.961Z,99.90
2019-06-01T05:01:09.639Z,99.90
2019-06-01T05:03:51.300Z,99.90
2019-06-01T05:06:32.654Z,99.90
2019-06-01T05:09:15.533Z,99.90
2019-06-01T05:11:56.988Z,99.90
2019-06-01T05:14:37.968Z,99.90
2019-06-01T05:17:18.722Z,99.90
2019-06-01T05:20:00.018Z,99.90
2019-06-01T05:22:41.290Z,99.90
2019-06-01T05:25:22.616Z,99.90
2019-06-01T05:27:52.144Z,99.90
2019-06-01T05:30:40.649Z,99.90
2019-06-01T05:33:36.956Z,99.90
2019-06-01T05:36:12.120Z,99.90
2019-06-01T05:38:53.533Z,99.90
2019-06-01T05:41:34.920Z,99.90
2019-06-01T05:44:17.022Z,99.90
2019-06-01T05:46:58.110Z,99.90
2019-06-01T05:49:38.872Z,99.90
2019-06-01T05:52:19.583Z,99.90
2019-06-01T05:55:01.173Z,99.90
2019-06-01T05:57:42.523Z,99.90
2019-06-01T06:00:24.046Z,99.90
2019-06-01T06:03:05.031Z,99.90
2019-06-01T06:05:46.592Z,99.90
2019-06-01T06:08:27.411Z,99.90
2019-06-01T06:11:08.908Z,99.90
2019-06-01T06:13:50.537Z,99.90
2019-06-01T06:16:31.326Z,99.90
2019-06-01T06:19:13.897Z,99.90
2019-06-01T06:21:54.920Z,99.90
2019-06-01T06:24:36.371Z,99.90
2019-06-01T06:27:18.525Z,99.90
2019-06-01T06:29:59.272Z,99.90
2019-06-01T06:32:39.994Z,99.90
2019-06-01T06:35:21.603Z,99.90
2019-06-01T06:38:02.173Z,99.90
2019-06-01T06:40:43.179Z,99.90
2019-06-01T06:43:32.243Z,99.90
2019-06-01T06:46:07.104Z,99.90
2019-06-01T06:48:48.732Z,99.90
2019-06-01T06:51:30.139Z,99.90
2019-06-01T06:54:14.449Z,99.90
2019-06-01T06:56:53.997Z,99.90
2019-06-01T06:59:35.463Z,99.90
2019-06-01T07:02:16.735Z,99.90
2019-06-01T07:04:58.034Z,99.90
2019-06-01T07:07:39.215Z,99.90
2019-06-01T07:10:22.079Z,99.90
2019-06-01T07:13:03.143Z,99.90
2019-06-01T07:15:44.798Z,99.90
2019-06-01T07:18:25.880Z,99.90
2019-06-01T07:21:07.415Z,99.90
2019-06-01T07:23:48.988Z,99.90
2019-06-01T07:26:30.509Z,99.90
2019-06-01T07:29:11.590Z,99.90
2019-06-01T07:31:52.479Z,99.90
2019-06-01T07:34:34.532Z,99.90
2019-06-01T07:37:12.317Z,99.90
2019-06-01T07:39:56.757Z,99.90
2019-06-01T07:42:38.341Z,99.90
2019-06-01T07:45:07.958Z,99.90
2019-06-01T07:47:56.555Z,99.90
2019-06-01T07:50:45.128Z,99.90
2019-06-01T07:53:27.435Z,99.90
2019-06-01T07:56:08.484Z,99.90
2019-06-01T07:58:49.689Z,99.90
2019-06-01T08:01:32.719Z,99.90
2019-06-01T08:04:13.646Z,99.90
2019-06-01T08:06:54.479Z,99.90
2019-06-01T08:09:36.169Z,99.90
2019-06-01T08:12:17.497Z,99.90
2019-06-01T08:14:58.351Z,99.90
2019-06-01T08:17:39.945Z,99.90
2019-06-01T08:20:21.923Z,99.90
2019-06-01T08:23:03.420Z,99.90
2019-06-01T08:25:45.200Z,99.90
2019-06-01T08:28:26.506Z,99.90
2019-06-01T08:31:07.697Z,99.90
2019-06-01T08:33:49.305Z,99.90
2019-06-01T08:36:31.635Z,99.90
2019-06-01T08:39:12.723Z,99.90
2019-06-01T08:41:53.811Z,99.70
2019-06-01T08:44:35.107Z,99.60
2019-06-01T08:47:16.376Z,99.50
2019-06-01T08:49:59.109Z,99.50
2019-06-01T08:52:41.598Z,99.50
2019-06-01T08:55:24.007Z,99.60
2019-06-01T08:58:05.626Z,99.60
2019-06-01T09:00:47.050Z,99.40
2019-06-01T09:03:29.764Z,99.30
2019-06-01T09:06:11.239Z,98.90
2019-06-01T09:08:52.966Z,99.60
2019-06-01T09:11:35.320Z,99.30
2019-06-01T09:14:16.075Z,99.60
2019-06-01T09:16:56.747Z,99.20
2019-06-01T09:19:38.277Z,99.40
2019-06-01T09:22:19.783Z,99.30
2019-06-01T09:25:01.375Z,99.30
2019-06-01T09:27:42.769Z,99.00
2019-06-01T09:30:23.466Z,99.20
2019-06-01T09:33:04.285Z,98.80
2019-06-01T09:35:55.601Z,99.20
2019-06-01T09:38:27.892Z,98.70
2019-06-01T09:41:09.238Z,98.30
2019-06-01T09:43:50.876Z,98.00
2019-06-01T09:46:32.668Z,97.90
2019-06-01T09:49:14.637Z,97.90
2019-06-01T09:51:55.938Z,98.00
2019-06-01T09:54:38.135Z,97.60
2019-06-01T09:57:19.592Z,97.70
2019-06-01T10:00:01.030Z,97.60
2019-06-01T10:02:42.603Z,97.00
2019-06-01T10:05:23.372Z,96.90
2019-06-01T10:08:04.815Z,96.60
2019-06-01T10:10:46.392Z,96.60
2019-06-01T10:13:27.952Z,96.40
2019-06-01T10:16:09.363Z,96.40
2019-06-01T10:18:50.923Z,96.10
2019-06-01T10:21:32.143Z,96.10
2019-06-01T10:24:02.011Z,96.00
2019-06-01T10:26:50.693Z,95.80
2019-06-01T10:29:32.604Z,95.90
2019-06-01T10:32:14.091Z,95.90
2019-06-01T10:34:55.743Z,95.90
2019-06-01T10:37:37.690Z,95.90
2019-06-01T10:40:18.940Z,95.70
2019-06-01T10:43:00.219Z,95.90
2019-06-01T10:45:42.058Z,95.50
2019-06-01T10:48:23.374Z,95.60
2019-06-01T10:51:04.823Z,94.90
2019-06-01T10:53:46.440Z,94.90
2019-06-01T10:56:28.119Z,94.80
2019-06-01T10:59:08.709Z,94.80
2019-06-01T11:01:49.432Z,95.00
2019-06-01T11:04:30.813Z,94.60
2019-06-01T11:07:12.128Z,94.50
2019-06-01T11:09:53.042Z,94.70
2019-06-01T11:12:34.903Z,94.20
2019-06-01T11:15:16.213Z,94.10
2019-06-01T11:17:57.773Z,93.60
2019-06-01T11:20:39.383Z,93.30
2019-06-01T11:23:20.061Z,93.00
2019-06-01T11:26:01.503Z,92.70
2019-06-01T11:28:42.331Z,92.40
2019-06-01T11:34:03.256Z,92.30
2019-06-01T11:37:03.191Z,91.90
2019-06-01T11:39:27.257Z,91.60
2019-06-01T11:42:08.385Z,91.00
2019-06-01T11:44:49.734Z,91.30
2019-06-01T11:47:30.387Z,90.70
2019-06-01T11:50:11.545Z,89.90
2019-06-01T11:52:53.311Z,83.90
2019-06-01T11:55:35.135Z,77.40
2019-06-01T11:58:16.032Z,70.80
2019-06-01T12:00:57.600Z,65.90
2019-06-01T12:03:39.691Z,58.50
2019-06-01T12:06:20.815Z,54.90
2019-06-01T12:08:50.245Z,50.70
2019-06-01T12:11:39.804Z,48.60
2019-06-01T12:14:28.908Z,47.60
2019-06-01T12:17:10.126Z,46.60
2019-06-01T12:19:51.483Z,45.80
2019-06-01T12:22:33.108Z,45.00
2019-06-01T12:25:14.108Z,42.90
2019-06-01T12:27:55.866Z,41.70
2019-06-01T12:30:37.538Z,40.70
2019-06-01T12:33:19.242Z,42.30
2019-06-01T12:36:00.841Z,41.60
2019-06-01T12:39:01.133Z,40.50
2019-06-01T12:41:43.521Z,40.70
2019-06-01T12:44:24.834Z,41.80
2019-06-01T12:47:06.228Z,41.70
2019-06-01T12:49:48.200Z,40.30
2019-06-01T12:52:29.459Z,39.50
2019-06-01T12:55:10.910Z,41.50
2019-06-01T12:57:52.262Z,41.00
2019-06-01T13:00:33.219Z,40.80
2019-06-01T13:03:14.702Z,39.50
2019-06-01T13:05:55.726Z,39.80
2019-06-01T13:08:37.369Z,39.10
2019-06-01T13:11:18.871Z,39.00
2019-06-01T13:13:59.776Z,39.90
2019-06-01T13:16:43.885Z,41.30
2019-06-01T13:19:24.289Z,42.60
2019-06-01T13:22:05.565Z,43.70
2019-06-01T13:24:47.919Z,45.90
2019-06-01T13:27:28.980Z,46.70
2019-06-01T13:30:10.575Z,47.40
2019-06-01T13:32:52.802Z,48.40
2019-06-01T13:35:33.699Z,47.40
2019-06-01T13:38:14.698Z,46.00
2019-06-01T13:40:55.529Z,46.10
2019-06-01T13:43:37.103Z,46.10
2019-06-01T13:46:18.211Z,46.00
2019-06-01T13:48:59.345Z,46.50
2019-06-01T13:51:40.953Z,47.50
2019-06-01T13:54:21.744Z,48.30
2019-06-01T13:57:02.430Z,47.60
2019-06-01T13:59:44.442Z,46.60
2019-06-01T14:02:26.081Z,46.10
2019-06-01T14:05:07.098Z,46.50
2019-06-01T14:07:49.509Z,46.70
2019-06-01T14:10:31.188Z,43.10
2019-06-01T14:13:12.753Z,40.00
2019-06-01T14:15:54.067Z,40.80
2019-06-01T14:18:35.530Z,42.30
2019-06-01T14:21:17.108Z,40.90
2019-06-01T14:23:58.123Z,38.80
2019-06-01T14:29:17.801Z,35.00
2019-06-01T14:31:58.713Z,34.60
2019-06-01T14:34:39.454Z,34.70
2019-06-01T14:40:06.467Z,33.60
2019-06-01T14:42:49.023Z,35.30
2019-06-01T14:45:30.536Z,34.10
2019-06-01T14:48:12.396Z,33.30
2019-06-01T14:50:54.214Z,32.00
2019-06-01T14:53:36.034Z,30.50
2019-06-01T14:56:17.434Z,31.10
2019-06-01T14:59:01.917Z,31.00
2019-06-01T15:01:41.407Z,31.90
2019-06-01T15:04:10.921Z,32.90
2019-06-01T15:10:10.171Z,30.70
2019-06-01T15:12:56.493Z,30.10
2019-06-01T15:15:37.971Z,29.80
2019-06-01T15:18:19.453Z,29.50
2019-06-01T15:21:02.191Z,30.10
2019-06-01T15:23:43.986Z,32.80
2019-06-01T15:26:25.177Z,34.30
2019-06-01T15:29:06.613Z,32.60
2019-06-01T15:31:47.568Z,31.10
2019-06-01T15:34:28.474Z,29.60
2019-06-01T15:37:10.227Z,29.10
2019-06-01T15:39:52.597Z,29.40
2019-06-01T15:42:22.125Z,29.70
2019-06-01T15:45:10.918Z,30.40
2019-06-01T15:47:53.310Z,30.80
2019-06-01T15:50:36.568Z,31.10
2019-06-01T15:53:17.854Z,31.50
2019-06-01T15:55:59.238Z,31.30
2019-06-01T15:58:52.505Z,31.90
2019-06-01T16:01:22.250Z,32.40
2019-06-01T16:04:03.478Z,32.70
2019-06-01T16:06:45.057Z,32.20
2019-06-01T16:09:41.710Z,32.30
2019-06-01T16:12:09.464Z,32.80
2019-06-01T16:14:50.567Z,34.30
2019-06-01T16:17:32.082Z,35.00
2019-06-01T16:20:13.612Z,35.80
2019-06-01T16:22:55.999Z,36.00
2019-06-01T16:25:37.754Z,36.60
2019-06-01T16:28:18.490Z,36.00
2019-06-01T16:31:00.586Z,36.10
2019-06-01T16:33:42.066Z,35.70
2019-06-01T16:36:23.614Z,35.50
2019-06-01T16:39:07.907Z,34.20
2019-06-01T16:41:47.701Z,33.80
2019-06-01T16:44:29.201Z,34.30
2019-06-01T16:47:10.497Z,34.90
2019-06-01T16:49:51.153Z,35.20
2019-06-01T16:52:31.866Z,36.10
2019-06-01T16:55:12.735Z,36.40
2019-06-01T16:57:53.425Z,37.70
2019-06-01T17:00:34.248Z,38.40
2019-06-01T17:03:15.054Z,39.20
2019-06-01T17:05:56.678Z,38.90
2019-06-01T17:08:37.942Z,37.90
2019-06-01T17:11:19.697Z,36.90
2019-06-01T17:14:00.779Z,35.00
2019-06-01T17:16:42.366Z,34.10
2019-06-01T17:19:24.008Z,33.50
2019-06-01T17:22:05.617Z,32.50
2019-06-01T17:24:47.237Z,31.80
2019-06-01T17:27:28.423Z,31.80
2019-06-01T17:30:12.024Z,31.50
2019-06-01T17:32:53.002Z,31.00
2019-06-01T17:35:36.243Z,31.00
2019-06-01T17:38:17.204Z,32.10
2019-06-01T17:40:58.542Z,32.10
2019-06-01T17:43:40.254Z,32.50
2019-06-01T17:46:21.166Z,32.90
2019-06-01T17:49:04.010Z,33.80
2019-06-01T17:51:45.780Z,37.10
2019-06-01T17:54:27.061Z,39.50
2019-06-01T17:57:07.781Z,41.70
2019-06-01T17:59:49.480Z,45.50
2019-06-01T18:02:30.746Z,48.10
2019-06-01T18:05:12.192Z,49.30
2019-06-01T18:07:53.903Z,50.50
2019-06-01T18:10:35.156Z,51.40
2019-06-01T18:13:16.093Z,52.90
2019-06-01T18:15:57.652Z,54.10
2019-06-01T18:18:27.094Z,54.70
2019-06-01T18:21:15.736Z,56.10
2019-06-01T18:24:06.241Z,57.20
2019-06-01T18:26:46.906Z,57.80
2019-06-01T18:29:27.537Z,58.40
2019-06-01T18:32:09.513Z,59.10
2019-06-01T18:34:51.252Z,59.90
2019-06-01T18:37:32.211Z,61.00
2019-06-01T18:40:14.557Z,62.30
2019-06-01T18:42:55.766Z,63.10
2019-06-01T18:45:38.980Z,63.60
2019-06-01T18:48:20.790Z,64.70
2019-06-01T18:51:02.003Z,66.10
2019-06-01T18:53:43.685Z,68.10
2019-06-01T18:56:25.115Z,70.00
2019-06-01T18:59:08.415Z,72.00
2019-06-01T19:01:50.028Z,73.70
2019-06-01T19:04:31.698Z,75.80
2019-06-01T19:07:13.362Z,77.10
2019-06-01T19:09:54.414Z,78.60
2019-06-01T19:12:35.802Z,80.40
2019-06-01T19:15:26.755Z,82.00
2019-06-01T19:18:00.734Z,82.30
2019-06-01T19:23:24.892Z,84.10
2019-06-01T19:26:10.165Z,85.50
2019-06-01T19:28:50.053Z,86.80
2019-06-01T19:31:31.640Z,88.50
2019-06-01T19:34:13.104Z,90.00
2019-06-01T19:36:54.501Z,90.50
2019-06-01T19:39:36.125Z,91.00
2019-06-01T19:42:18.540Z,91.60
2019-06-01T19:45:00.388Z,92.00
2019-06-01T19:47:41.990Z,92.20
2019-06-01T19:50:23.428Z,92.50
2019-06-01T19:53:04.833Z,93.00
2019-06-01T19:55:46.490Z,93.60
2019-06-01T19:58:27.384Z,93.90
2019-06-01T20:01:08.461Z,94.00
2019-06-01T20:03:50.462Z,94.30
2019-06-01T20:06:32.390Z,94.40
2019-06-01T20:09:14.973Z,94.60
2019-06-01T20:12:01.801Z,94.80
2019-06-01T20:14:40.775Z,95.00
2019-06-01T20:17:26.223Z,95.20
2019-06-01T20:20:05.872Z,95.20
2019-06-01T20:22:47.463Z,95.30
2019-06-01T20:25:29.255Z,95.30
2019-06-01T20:28:11.407Z,95.40
2019-06-01T20:30:52.327Z,95.50
2019-06-01T20:33:33.763Z,95.80
2019-06-01T20:36:16.138Z,95.90
2019-06-01T20:38:56.889Z,96.00
2019-06-01T20:41:38.898Z,96.00
2019-06-01T20:44:20.978Z,96.10
2019-06-01T20:47:02.962Z,96.20
2019-06-01T20:49:44.346Z,96.30
2019-06-01T20:52:25.598Z,96.40
2019-06-01T20:55:06.428Z,96.60
2019-06-01T20:57:48.173Z,96.90
2019-06-01T21:00:31.937Z,97.20
2019-06-01T21:03:13.707Z,97.40
2019-06-01T21:05:56.054Z,97.60
2019-06-01T21:08:38.898Z,98.10
2019-06-01T21:11:09.174Z,98.40
2019-06-01T21:13:58.171Z,98.70
2019-06-01T21:16:47.121Z,98.70
2019-06-01T21:19:28.460Z,98.80
2019-06-01T21:22:10.118Z,98.90
2019-06-01T21:24:51.804Z,99.00
2019-06-01T21:27:33.775Z,99.20
2019-06-01T21:30:16.969Z,99.40
2019-06-01T21:33:00.135Z,99.50
2019-06-01T21:35:41.585Z,99.70
2019-06-01T21:41:19.930Z,99.90
2019-06-01T21:44:00.854Z,99.90
2019-06-01T21:46:41.701Z,99.90
2019-06-01T21:49:24.111Z,99.90
2019-06-01T21:52:05.472Z,99.90
2019-06-01T21:54:47.215Z,99.90
2019-06-01T21:57:28.656Z,99.90
2019-06-01T22:00:10.670Z,99.90
2019-06-01T22:02:51.838Z,99.90
2019-06-01T22:05:32.604Z,99.90
2019-06-01T22:08:14.012Z,99.90
2019-06-01T22:10:55.208Z,99.90
2019-06-01T22:13:36.630Z,99.90
2019-06-01T22:16:19.500Z,99.90
2019-06-01T22:19:00.720Z,99.90
2019-06-01T22:21:41.478Z,99.90
2019-06-01T22:24:23.876Z,99.90
2019-06-01T22:27:05.505Z,99.90
2019-06-01T22:29:46.297Z,99.90
2019-06-01T22:32:30.044Z,99.90
2019-06-01T22:35:09.993Z,99.90
2019-06-01T22:37:51.543Z,99.90
2019-06-01T22:40:33.060Z,99.90
2019-06-01T22:43:14.445Z,99.90
2019-06-01T22:45:55.911Z,99.90
2019-06-01T22:48:37.541Z,99.90
2019-06-01T22:51:18.274Z,99.90
2019-06-01T22:53:59.920Z,99.90
2019-06-01T22:56:41.171Z,99.90
2019-06-01T22:59:22.627Z,99.90
2019-06-01T23:02:04.181Z,99.90
2019-06-01T23:04:45.469Z,99.90
2019-06-01T23:07:27.308Z,99.90
2019-06-01T23:10:08.394Z,99.90
2019-06-01T23:12:49.360Z,99.90
2019-06-01T23:15:31.854Z,99.90
2019-06-01T23:18:13.094Z,99.90
2019-06-01T23:20:54.073Z,99.90
2019-06-01T23:23:35.695Z,99.90
2019-06-01T23:26:17.226Z,99.90
2019-06-01T23:28:57.970Z,99.90
2019-06-01T23:31:39.544Z,99.90
2019-06-01T23:34:20.498Z,99.90
2019-06-01T23:37:02.093Z,99.90
2019-06-01T23:39:43.614Z,99.90
2019-06-01T23:42:25.104Z,99.90
2019-06-01T23:45:09.306Z,99.90
2019-06-01T23:47:50.493Z,99.90
2019-06-01T23:50:32.522Z,99.90
2019-06-01T23:53:14.118Z,99.90
2019-06-01T23:55:55.198Z,99.90
2019-06-01T23:58:36.494Z,99.90
